Time;durP1;ratioP1;P1;durP2;ratioP2;P2;SDS_P1;SDS_P2;PMS_P1;PMS_P2;Temp;Humidity;BMP_temperature;BMP_pressure;BME280_temperature;BME280_humidity;BME280_pressure;Samples;Min_cycle;Max_cycle;Signal;HPM_P1;HPM_P2
2023/01/31 02:02:19;;;;;;;24.70;9.70;;;;;;;-2.26;100.00;100352.73;103694;1283;612750;-84
2023/01/31 02:04:49;;;;;;;28.10;10.10;;;;;;;-2.01;100.00;100350.77;103853;1283;235734;-84
2023/01/31 02:07:14;;;;;;;31.80;10.80;;;;;;;-1.93;100.00;100348.59;103801;1282;60532;-84
2023/01/31 02:10:23;;;;;;;41.40;13.50;;;;;;;-1.86;100.00;100348.44;103432;1287;601107;-84
2023/01/31 02:12:49;;;;;;;29.90;9.80;;;;;;;-1.86;100.00;100348.27;103528;1286;61829;-85
2023/01/31 02:15:14;;;;;;;28.30;10.80;;;;;;;-1.81;100.00;100346.71;103506;1291;60400;-84
2023/01/31 02:21:54;;;;;;;26.60;9.90;;;;;;;-1.72;100.00;100347.04;103774;1283;600949;-84
2023/01/31 02:24:55;;;;;;;27.80;9.30;;;;;;;-1.71;100.00;100343.66;103750;1283;60943;-85
2023/01/31 02:31:08;;;;;;;27.40;9.30;;;;;;;-1.64;100.00;100338.12;103375;1285;600286;-83
2023/01/31 02:33:47;;;;;;;25.50;9.20;;;;;;;-1.63;100.00;100337.85;103528;1286;63084;-85
2023/01/31 02:36:55;;;;;;;25.70;9.50;;;;;;;-1.61;100.00;100340.52;103417;1286;60503;-84
2023/01/31 02:39:50;;;;;;;25.60;9.70;;;;;;;-1.60;100.00;100340.61;103235;1288;70846;-84
2023/01/31 11:24:19;;;;;;;22.70;9.20;;;;;;;2.62;100.00;100357.33;103644;1284;613960;-81
2023/01/31 11:29:49;;;;;;;24.10;8.70;;;;;;;2.81;100.00;100351.96;103755;1283;600769;-82
2023/01/31 11:32:22;;;;;;;25.80;9.30;;;;;;;2.83;100.00;100349.79;103781;1299;61286;-80
2023/01/31 11:35:21;;;;;;;22.80;8.40;;;;;;;2.86;100.00;100349.80;103726;1288;60451;-81
2023/01/31 11:37:56;;;;;;;23.40;8.30;;;;;;;2.77;100.00;100351.46;103777;1286;71930;-81
2023/01/31 11:40:29;;;;;;;22.40;8.70;;;;;;;2.78;100.00;100354.73;103788;1285;74591;-80
2023/01/31 11:42:57;;;;;;;24.80;8.60;;;;;;;2.77;100.00;100361.08;103672;1288;187447;-82
2023/01/31 11:45:32;;;;;;;27.20;9.70;;;;;;;2.72;100.00;100362.79;104170;1284;62762;-82
2023/01/31 11:48:11;;;;;;;24.50;9.00;;;;;;;2.68;100.00;100368.30;104214;1283;60938;-81
2023/01/31 11:50:44;;;;;;;25.30;9.20;;;;;;;2.61;100.00;100369.73;103820;1283;70826;-81
2023/01/31 11:53:36;;;;;;;20.10;8.40;;;;;;;2.58;100.00;100372.85;103567;1290;73491;-82
2023/01/31 11:56:15;;;;;;;62.00;24.00;;;;;;;2.53;100.00;100374.63;103309;1291;73948;-82
2023/01/31 11:58:44;;;;;;;26.40;9.80;;;;;;;2.50;100.00;100376.41;103560;1286;60300;-82
2023/01/31 12:01:16;;;;;;;33.40;12.30;;;;;;;2.48;100.00;100377.23;103561;1291;60532;-81
2023/01/31 14:42:04;;;;;;;43.60;14.60;;;;;;;0.18;100.00;100407.98;103722;1282;613428;-82
2023/01/31 14:44:48;;;;;;;37.40;13.20;;;;;;;0.36;100.00;100408.88;103746;1283;152910;-81
2023/01/31 14:47:46;;;;;;;36.10;13.70;;;;;;;0.42;100.00;100406.54;104183;1283;60614;-82
2023/01/31 14:50:33;;;;;;;43.00;14.40;;;;;;;0.44;100.00;100406.35;104139;1283;70212;-81
2023/01/31 14:53:32;;;;;;;37.10;13.60;;;;;;;0.44;100.00;100410.09;104125;1285;75077;-81
2023/01/31 14:58:58;;;;;;;34.40;12.20;;;;;;;0.46;100.00;100408.95;102892;1292;600989;-82
2023/01/31 15:01:33;;;;;;;34.10;12.40;;;;;;;0.45;100.00;100412.27;103275;1289;60361;-82
2023/01/31 15:03:59;;;;;;;36.30;11.50;;;;;;;0.46;100.00;100411.11;103293;1289;60444;-81
2023/01/31 15:06:29;;;;;;;33.80;11.70;;;;;;;0.45;100.00;100408.79;103360;1295;60688;-82
2023/01/31 15:09:20;;;;;;;30.10;11.40;;;;;;;0.43;100.00;100409.72;103330;1293;74751;-81
2023/01/31 15:15:27;;;;;;;32.50;11.40;;;;;;;0.45;100.00;100406.97;102992;1290;600080;-82
2023/01/31 15:21:36;;;;;;;33.00;11.50;;;;;;;0.46;100.00;100403.34;103326;1289;600827;-81
2023/01/31 15:24:02;;;;;;;36.40;13.20;;;;;;;0.42;100.00;100402.42;103231;1288;62875;-81
2023/01/31 15:30:20;;;;;;;34.80;11.40;;;;;;;0.41;100.00;100403.98;102962;1291;600281;-81
2023/01/31 15:33:15;;;;;;;36.20;11.90;;;;;;;0.37;100.00;100403.79;103480;1288;61975;-82
2023/01/31 15:36:04;;;;;;;35.90;12.20;;;;;;;0.36;100.00;100399.98;102801;1296;60385;-81
2023/01/31 15:38:43;;;;;;;36.00;11.90;;;;;;;0.35;100.00;100400.40;102053;1306;72210;-82
2023/01/31 15:41:36;;;;;;;53.40;15.50;;;;;;;0.36;100.00;100398.31;102912;1290;600762;-83
2023/01/31 15:44:19;;;;;;;53.00;15.10;;;;;;;0.35;100.00;100403.72;103512;1292;60479;-82
2023/01/31 15:47:19;;;;;;;37.80;12.60;;;;;;;0.37;100.00;100409.48;103648;1282;600778;-82
2023/01/31 15:49:50;;;;;;;37.40;12.20;;;;;;;0.34;100.00;100405.48;103666;1283;61397;-82
2023/01/31 15:52:21;;;;;;;33.00;11.70;;;;;;;0.34;100.00;100405.27;103767;1284;60343;-82
2023/01/31 15:55:06;;;;;;;34.70;10.70;;;;;;;0.33;100.00;100411.48;103885;1287;72414;-81
2023/01/31 15:57:41;;;;;;;35.30;12.20;;;;;;;0.31;100.00;100417.45;103780;1288;72594;-81
2023/01/31 16:00:15;;;;;;;29.20;11.70;;;;;;;0.29;100.00;100416.55;103553;1283;288251;-81
2023/01/31 16:02:41;;;;;;;35.80;12.40;;;;;;;0.26;100.00;100416.53;104086;1282;60306;-81
2023/01/31 16:05:07;;;;;;;35.00;12.60;;;;;;;0.26;100.00;100417.95;104184;1282;60366;-81
2023/01/31 16:07:34;;;;;;;29.40;11.30;;;;;;;0.26;100.00;100418.86;103833;1287;60517;-81
2023/01/31 16:10:00;;;;;;;34.10;11.60;;;;;;;0.23;100.00;100423.09;103956;1286;60420;-81
2023/01/31 20:26:22;;;;;;;51.70;17.70;;;;;;;-1.00;100.00;100443.25;103336;1288;615298;-79
2023/01/31 20:32:07;;;;;;;47.60;15.70;;;;;;;-0.66;100.00;100442.30;102800;1296;603606;-79
2023/01/31 20:34:35;;;;;;;51.50;15.70;;;;;;;-0.61;100.00;100443.08;102989;1293;60400;-79
2023/01/31 20:37:01;;;;;;;52.50;16.20;;;;;;;-0.58;100.00;100441.44;103361;1286;62285;-79
2023/01/31 20:39:27;;;;;;;48.10;16.50;;;;;;;-0.55;100.00;100440.36;106740;1286;58405;-80
2023/01/31 20:41:53;;;;;;;68.80;20.20;;;;;;;-0.52;100.00;100442.22;106730;1286;58690;-79
2023/01/31 20:44:18;;;;;;;79.10;20.80;;;;;;;-0.50;100.00;100438.75;106578;1286;192322;-80
2023/01/31 20:46:44;;;;;;;70.40;21.00;;;;;;;-0.49;100.00;100435.69;106948;1284;58139;-80
2023/01/31 20:49:09;;;;;;;74.70;23.50;;;;;;;-0.47;100.00;100436.84;106986;1286;58201;-80
2023/01/31 20:51:35;;;;;;;66.90;22.20;;;;;;;-0.42;100.00;100437.90;106962;1285;59714;-80
2023/01/31 20:54:01;;;;;;;74.60;23.70;;;;;;;-0.40;100.00;100438.33;106960;1284;58360;-80
2023/01/31 20:56:27;;;;;;;75.40;24.30;;;;;;;-0.38;100.00;100437.40;106971;1285;58035;-80
2023/01/31 20:58:52;;;;;;;74.30;24.60;;;;;;;-0.38;100.00;100436.60;106963;1285;58064;-81
2023/01/31 21:01:18;;;;;;;78.30;26.50;;;;;;;-0.38;100.00;100436.70;106779;1285;58216;-81
2023/01/31 21:03:43;;;;;;;76.40;22.80;;;;;;;-0.41;100.00;100436.16;106979;1284;58115;-80
2023/01/31 21:06:09;;;;;;;83.00;23.90;;;;;;;-0.40;100.00;100435.92;106544;1286;58256;-80
2023/01/31 21:08:34;;;;;;;79.50;24.50;;;;;;;-0.39;100.00;100432.34;106964;1285;58145;-80
2023/01/31 21:11:05;;;;;;;136.30;30.60;;;;;;;-0.39;100.00;100433.84;106986;1284;58157;-80
2023/01/31 21:13:31;;;;;;;163.40;37.00;;;;;;;-0.39;100.00;100431.24;106959;1285;74659;-80
2023/01/31 21:16:00;;;;;;;139.00;33.10;;;;;;;-0.37;100.00;100428.05;106936;1285;58120;-80
2023/01/31 21:18:27;;;;;;;174.60;39.50;;;;;;;-0.39;100.00;100430.06;106465;1284;62899;-80
2023/01/31 21:20:53;;;;;;;200.00;43.90;;;;;;;-0.40;100.00;100430.35;106271;1288;60069;-80
2023/01/31 21:23:19;;;;;;;202.60;48.10;;;;;;;-0.41;100.00;100430.46;106409;1289;58029;-80
2023/01/31 21:25:44;;;;;;;183.60;44.50;;;;;;;-0.40;100.00;100433.44;106409;1288;58309;-80
2023/01/31 21:28:10;;;;;;;127.20;31.90;;;;;;;-0.40;100.00;100432.63;106369;1289;58248;-79
2023/01/31 21:30:36;;;;;;;81.20;21.90;;;;;;;-0.39;100.00;100430.30;106459;1289;58192;-78
2023/01/31 21:33:01;;;;;;;74.70;21.20;;;;;;;-0.39;100.00;100430.27;106396;1288;73073;-79
2023/01/31 21:35:27;;;;;;;61.10;17.60;;;;;;;-0.40;100.00;100429.54;106382;1288;58342;-80
2023/01/31 21:37:53;;;;;;;58.20;18.50;;;;;;;-0.40;100.00;100426.19;106171;1288;58293;-80
2023/01/31 21:40:18;;;;;;;60.70;18.40;;;;;;;-0.40;100.00;100428.96;106424;1288;58223;-80
2023/01/31 21:42:48;;;;;;;59.00;17.20;;;;;;;-0.40;100.00;100429.86;106120;1289;58315;-79
2023/01/31 21:45:14;;;;;;;75.00;20.40;;;;;;;-0.38;100.00;100430.27;106137;1290;58091;-79
2023/01/31 21:50:23;;;;;;;91.90;23.70;;;;;;;-0.32;100.00;100427.95;106372;1289;71050;-79
2023/01/31 21:52:49;;;;;;;97.00;23.80;;;;;;;-0.29;100.00;100425.42;106516;1286;58602;-79
2023/01/31 21:55:15;;;;;;;91.40;23.30;;;;;;;-0.25;100.00;100425.61;106789;1286;58083;-80
2023/01/31 21:57:42;;;;;;;71.60;21.40;;;;;;;-0.23;100.00;100426.81;106917;1284;57971;-79
2023/01/31 22:00:09;;;;;;;73.30;21.60;;;;;;;-0.21;100.00;100424.48;106913;1284;58192;-80
2023/01/31 22:02:34;;;;;;;61.00;17.90;;;;;;;-0.18;100.00;100427.82;106855;1286;58456;-80
2023/01/31 22:05:00;;;;;;;57.50;18.10;;;;;;;-0.17;100.00;100425.54;106872;1285;58073;-79
2023/01/31 22:07:25;;;;;;;58.90;18.50;;;;;;;-0.17;100.00;100421.42;106585;1285;58266;-79
2023/01/31 22:09:51;;;;;;;57.20;19.40;;;;;;;-0.17;100.00;100420.48;106983;1285;58562;-79
2023/01/31 22:12:16;;;;;;;63.40;19.90;;;;;;;-0.21;100.00;100415.61;106745;1285;58265;-79
2023/01/31 22:14:42;;;;;;;59.50;19.10;;;;;;;-0.25;100.00;100417.50;106925;1285;58041;-79
2023/01/31 22:17:07;;;;;;;62.50;18.90;;;;;;;-0.29;100.00;100415.48;106944;1285;58195;-79
2023/01/31 22:19:33;;;;;;;75.20;21.90;;;;;;;-0.29;100.00;100415.73;106975;1285;59011;-79
2023/01/31 22:21:58;;;;;;;77.70;22.90;;;;;;;-0.28;100.00;100416.99;106915;1286;58116;-79
2023/01/31 22:24:24;;;;;;;79.10;22.60;;;;;;;-0.28;100.00;100414.67;106412;1286;58172;-79
2023/01/31 22:26:49;;;;;;;72.80;21.10;;;;;;;-0.28;100.00;100413.98;106900;1285;58241;-79
2023/01/31 22:29:15;;;;;;;61.20;18.80;;;;;;;-0.26;100.00;100412.17;106908;1285;58144;-79
2023/01/31 22:31:42;;;;;;;63.20;19.20;;;;;;;-0.23;100.00;100413.23;106900;1285;58262;-79
2023/01/31 22:34:12;;;;;;;64.00;20.20;;;;;;;-0.21;100.00;100410.85;106905;1285;58148;-78
2023/01/31 22:36:37;;;;;;;52.00;17.20;;;;;;;-0.21;100.00;100413.16;106895;1284;63062;-79
2023/01/31 22:39:03;;;;;;;53.40;18.00;;;;;;;-0.20;100.00;100415.50;106939;1285;58082;-79
2023/01/31 22:41:29;;;;;;;49.00;17.90;;;;;;;-0.21;100.00;100412.59;106501;1285;58267;-79
2023/01/31 22:43:54;;;;;;;56.10;18.50;;;;;;;-0.24;100.00;100412.30;106909;1285;58156;-78
2023/01/31 22:46:25;;;;;;;58.50;18.90;;;;;;;-0.29;100.00;100408.11;106892;1285;58124;-79
2023/01/31 22:48:53;;;;;;;66.70;21.00;;;;;;;-0.33;100.00;100408.52;106877;1284;61618;-79
2023/01/31 22:51:22;;;;;;;59.90;20.30;;;;;;;-0.37;100.00;100408.65;106455;1285;60999;-79
2023/01/31 22:53:48;;;;;;;56.40;19.60;;;;;;;-0.39;100.00;100410.80;106524;1286;71996;-79
2023/01/31 22:56:15;;;;;;;60.40;19.20;;;;;;;-0.37;100.00;100413.02;106910;1284;58232;-79
2023/01/31 22:58:41;;;;;;;63.10;20.60;;;;;;;-0.32;100.00;100413.02;106872;1284;58085;-79
2023/01/31 23:01:20;;;;;;;56.30;18.30;;;;;;;-0.27;100.00;100417.04;106892;1285;58135;-79
2023/01/31 23:03:47;;;;;;;70.90;20.00;;;;;;;-0.22;100.00;100420.17;106913;1285;61081;-79
2023/01/31 23:06:14;;;;;;;60.60;20.00;;;;;;;-0.18;100.00;100423.73;106898;1285;72650;-79
2023/01/31 23:08:40;;;;;;;63.00;20.50;;;;;;;-0.17;100.00;100420.61;106957;1285;72459;-79
2023/01/31 23:11:12;;;;;;;60.30;19.80;;;;;;;-0.16;100.00;100422.05;106487;1285;58194;-79
2023/01/31 23:13:38;;;;;;;74.10;21.20;;;;;;;-0.14;100.00;100426.45;106420;1285;61854;-80
2023/01/31 23:16:05;;;;;;;56.60;18.30;;;;;;;-0.11;100.00;100425.62;106744;1285;58153;-80
2023/01/31 23:18:31;;;;;;;57.30;18.00;;;;;;;-0.08;100.00;100429.52;106469;1285;72725;-80
2023/01/31 23:21:16;;;;;;;59.70;19.00;;;;;;;-0.05;100.00;100431.25;106919;1284;58304;-79
2023/01/31 23:23:41;;;;;;;55.50;17.70;;;;;;;-0.04;100.00;100433.40;106850;1285;72547;-79
2023/01/31 23:26:08;;;;;;;59.50;18.70;;;;;;;-0.02;100.00;100430.48;106410;1284;58247;-79
2023/01/31 23:28:33;;;;;;;55.30;17.90;;;;;;;-0.01;100.00;100427.97;106596;1284;58269;-79
2023/01/31 23:31:00;;;;;;;52.60;18.20;;;;;;;-0.02;100.00;100430.20;106920;1284;58188;-79
2023/01/31 23:33:25;;;;;;;53.80;17.70;;;;;;;-0.03;100.00;100430.84;106437;1289;58128;-79
2023/01/31 23:35:51;;;;;;;52.00;17.30;;;;;;;-0.04;100.00;100431.09;106387;1289;58190;-77
2023/01/31 23:38:17;;;;;;;55.10;18.00;;;;;;;-0.03;100.00;100428.65;106435;1289;58154;-79
2023/01/31 23:40:42;;;;;;;56.40;17.60;;;;;;;-0.03;100.00;100427.02;106402;1289;58222;-78
2023/01/31 23:43:08;;;;;;;55.10;18.10;;;;;;;-0.05;100.00;100423.05;106375;1290;58339;-79
2023/01/31 23:45:34;;;;;;;61.60;19.40;;;;;;;-0.09;100.00;100423.06;106187;1289;58230;-78
2023/01/31 23:47:59;;;;;;;61.80;19.50;;;;;;;-0.14;100.00;100421.44;106328;1289;58308;-79
2023/01/31 23:50:25;;;;;;;61.90;18.50;;;;;;;-0.20;100.00;100422.05;106414;1289;58182;-79
2023/01/31 23:52:51;;;;;;;56.80;17.70;;;;;;;-0.25;100.00;100421.58;106396;1289;58358;-79
2023/01/31 23:55:17;;;;;;;56.90;16.80;;;;;;;-0.27;100.00;100420.30;106362;1289;73402;-80
2023/01/31 23:57:44;;;;;;;50.20;15.20;;;;;;;-0.29;100.00;100419.59;106338;1289;58628;-78
